Time;durP1;ratioP1;P1;durP2;ratioP2;P2;SDS_P1;SDS_P2;PMS_P1;PMS_P2;Temp;Humidity;BMP_temperature;BMP_pressure;BME280_temperature;BME280_humidity;BME280_pressure;Samples;Min_cycle;Max_cycle;Signal;HPM_P1;HPM_P2
2021/12/03 00:02:15;;;;;;;10.47;4.33;;;;;;;6.48;81.17;98935.41;5455250;32;34127;-65
2021/12/03 00:05:18;;;;;;;7.90;4.00;;;;;;;6.82;79.53;98933.84;5471605;32;33887;-64
2021/12/03 00:08:20;;;;;;;11.47;4.10;;;;;;;7.13;77.14;98930.62;5494644;32;33613;-66
2021/12/03 00:11:24;;;;;;;6.85;3.45;;;;;;;6.95;77.93;98939.34;5502062;32;33964;-67
2021/12/03 00:14:26;;;;;;;8.67;3.60;;;;;;;6.70;78.57;98947.50;5478543;32;34721;-65
2021/12/03 00:17:29;;;;;;;6.57;3.20;;;;;;;6.63;78.51;98943.47;5499152;32;33775;-66
2021/12/03 00:20:36;;;;;;;8.37;3.33;;;;;;;6.95;76.41;98934.97;5465317;32;35261;-63
2021/12/03 00:23:39;;;;;;;6.73;3.20;;;;;;;6.60;77.99;98939.25;5492703;32;33913;-65
2021/12/03 00:26:42;;;;;;;6.43;3.37;;;;;;;6.73;77.24;98936.91;5484939;32;34057;-64
2021/12/03 00:29:44;;;;;;;7.32;3.33;;;;;;;6.73;78.85;98945.59;5475174;32;34030;-63
2021/12/03 00:32:48;;;;;;;6.93;2.80;;;;;;;7.07;75.41;98954.44;5487969;32;35575;-65
2021/12/03 00:35:51;;;;;;;6.95;3.00;;;;;;;5.96;78.03;98963.81;5493701;32;34119;-65
2021/12/03 00:38:58;;;;;;;5.07;2.80;;;;;;;6.43;76.76;98966.09;5480383;32;34112;-63
2021/12/03 00:42:02;;;;;;;5.67;2.60;;;;;;;6.60;76.12;98969.72;5498383;32;34647;-63
2021/12/03 00:45:08;;;;;;;6.90;2.90;;;;;;;6.63;76.52;98970.41;5474038;32;34944;-63
2021/12/03 00:48:10;;;;;;;7.17;3.10;;;;;;;6.43;76.66;98970.47;5495716;32;35309;-63
2021/12/03 00:51:13;;;;;;;5.77;2.77;;;;;;;6.39;76.82;98974.16;5480989;32;35296;-63
2021/12/03 00:54:15;;;;;;;6.28;2.92;;;;;;;6.49;77.26;98986.69;5484434;32;36480;-66
2021/12/03 00:57:18;;;;;;;5.57;2.60;;;;;;;6.73;74.77;98984.75;5497486;32;34351;-65
2021/12/03 01:00:24;;;;;;;4.23;2.40;;;;;;;6.51;74.04;98994.50;5491124;32;34883;-65
2021/12/03 01:03:27;;;;;;;6.27;2.73;;;;;;;6.44;75.90;98993.91;5489212;32;34717;-63
2021/12/03 01:06:29;;;;;;;6.03;2.80;;;;;;;6.92;75.69;98986.53;5494449;32;33814;-65
2021/12/03 01:09:32;;;;;;;6.73;2.80;;;;;;;6.84;74.70;98991.25;5501297;32;34994;-64
2021/12/03 01:12:35;;;;;;;6.20;2.83;;;;;;;7.19;73.42;98994.84;5479831;32;34480;-63
2021/12/03 01:15:39;;;;;;;6.87;3.17;;;;;;;7.75;70.46;98988.63;5484685;32;34065;-65
2021/12/03 01:18:42;;;;;;;;;;;;;;;7.03;73.63;99003.41;5483072;32;34582;-64
2021/12/03 01:21:44;;;;;;;5.17;2.73;;;;;;;7.24;72.15;98998.06;5475687;32;34284;-63
2021/12/03 01:24:46;;;;;;;6.83;3.00;;;;;;;7.53;71.32;98994.06;5483207;32;33936;-63
2021/12/03 01:27:50;;;;;;;6.50;3.00;;;;;;;7.84;69.94;98998.62;5464253;32;34655;-64
2021/12/03 01:30:53;;;;;;;5.80;2.87;;;;;;;6.60;74.93;99007.12;5482753;32;34589;-65
2021/12/03 01:33:55;;;;;;;6.97;3.22;;;;;;;7.09;74.51;99007.50;5492037;32;34668;-64
2021/12/03 01:36:57;;;;;;;5.47;2.67;;;;;;;7.31;71.81;99007.31;5487616;32;35159;-65
2021/12/03 01:39:59;;;;;;;5.60;2.80;;;;;;;7.25;71.13;99008.44;5479118;32;33883;-64
2021/12/03 01:43:03;;;;;;;6.07;3.20;;;;;;;6.91;72.56;99005.72;5479865;32;34662;-64
2021/12/03 01:46:10;;;;;;;6.00;2.70;;;;;;;7.44;72.30;99015.41;5468215;32;34058;-63
2021/12/03 01:49:14;;;;;;;8.60;3.13;;;;;;;7.66;70.05;99015.22;5489942;32;36234;-65
2021/12/03 01:52:16;;;;;;;5.62;2.25;;;;;;;7.29;71.27;99017.84;5486637;32;35484;-63
2021/12/03 01:55:18;;;;;;;5.73;2.93;;;;;;;6.70;72.57;99021.47;5480370;32;35041;-64
2021/12/03 01:58:21;;;;;;;6.30;2.80;;;;;;;6.96;71.15;99025.50;5482085;32;34016;-65
2021/12/03 02:01:26;;;;;;;5.00;2.72;;;;;;;6.93;71.05;99028.25;5497513;32;34125;-63
2021/12/03 02:04:29;;;;;;;4.77;2.50;;;;;;;6.74;71.61;99024.75;5483667;32;34566;-66
2021/12/03 02:07:32;;;;;;;6.00;2.70;;;;;;;7.03;69.74;99008.63;5484797;32;34784;-64
2021/12/03 02:10:35;;;;;;;5.57;2.73;;;;;;;6.94;71.10;99022.09;5478249;32;34545;-63
2021/12/03 02:13:37;;;;;;;6.70;2.92;;;;;;;7.80;67.95;99020.63;5474194;32;34394;-63
2021/12/03 02:16:40;;;;;;;8.07;2.80;;;;;;;7.09;70.31;99032.78;5478024;32;33867;-64
2021/12/03 02:19:42;;;;;;;8.03;3.33;;;;;;;7.36;69.85;99031.47;5492439;32;34947;-65
2021/12/03 02:22:46;;;;;;;6.97;2.90;;;;;;;6.95;70.70;99031.63;5481339;32;34542;-63
2021/12/03 02:25:49;;;;;;;8.47;3.87;;;;;;;6.48;72.17;99034.59;5490246;32;34131;-64
2021/12/03 02:28:52;;;;;;;7.23;3.53;;;;;;;6.89;71.85;99037.16;5483612;32;35011;-64
2021/12/03 02:31:54;;;;;;;7.67;3.70;;;;;;;6.63;72.34;99040.06;5492244;32;34560;-64
2021/12/03 02:34:56;;;;;;;7.37;3.57;;;;;;;7.17;70.43;99030.66;5477386;32;34708;-65
2021/12/03 02:37:58;;;;;;;6.73;3.20;;;;;;;7.22;68.46;99029.53;5497307;32;34047;-66
2021/12/03 02:41:01;;;;;;;7.03;3.17;;;;;;;6.98;70.12;99028.03;5475926;32;33459;-64
2021/12/03 02:44:04;;;;;;;8.75;3.10;;;;;;;7.58;65.76;99053.03;5482548;32;35239;-65
2021/12/03 02:47:07;;;;;;;7.67;3.17;;;;;;;6.47;69.15;99059.00;5487026;32;34526;-63
2021/12/03 02:50:11;;;;;;;8.13;3.80;;;;;;;6.23;71.39;99066.13;5486623;32;34731;-66
2021/12/03 02:53:13;;;;;;;9.23;4.43;;;;;;;7.30;68.25;99060.50;5489109;32;34010;-65
2021/12/03 02:56:16;;;;;;;9.90;5.18;;;;;;;6.38;71.15;99067.25;5484313;32;33841;-63
2021/12/03 02:59:18;;;;;;;11.87;6.07;;;;;;;6.56;71.83;99083.00;5479228;32;34027;-64
2021/12/03 03:02:21;;;;;;;13.00;6.18;;;;;;;6.86;71.09;99084.28;5479969;32;33591;-63
2021/12/03 03:05:26;;;;;;;11.17;6.13;;;;;;;6.76;71.03;99083.88;5481750;32;33835;-65
2021/12/03 03:08:30;;;;;;;12.43;6.03;;;;;;;6.05;74.30;99099.94;5477214;32;34292;-63
2021/12/03 03:11:32;;;;;;;14.05;7.18;;;;;;;7.05;72.28;99100.84;5500429;32;35189;-65
2021/12/03 03:14:34;;;;;;;15.27;8.00;;;;;;;6.15;75.82;99116.94;5462083;32;34360;-66
2021/12/03 03:17:37;;;;;;;16.97;9.67;;;;;;;6.21;76.20;99121.91;5485082;32;34468;-63
2021/12/03 03:20:41;;;;;;;16.83;10.10;;;;;;;6.67;75.49;99114.72;5453414;32;34010;-63
2021/12/03 03:23:44;;;;;;;18.97;10.90;;;;;;;6.29;76.22;99125.03;5465736;32;34603;-62
2021/12/03 03:26:47;;;;;;;21.30;12.03;;;;;;;6.74;75.70;99130.06;5485737;32;34760;-63
2021/12/03 03:29:51;;;;;;;21.33;12.43;;;;;;;6.22;76.55;99141.84;5477455;32;35530;-64
2021/12/03 03:32:53;;;;;;;;;;;;;;;6.20;77.96;99146.31;5477482;32;34665;-63
2021/12/03 03:35:55;;;;;;;22.30;11.80;;;;;;;6.86;75.28;99140.91;5465744;32;34048;-63
2021/12/03 03:38:58;;;;;;;23.33;13.30;;;;;;;7.20;73.28;99150.69;5464995;32;163336;-63
2021/12/03 03:42:01;;;;;;;21.83;12.33;;;;;;;6.67;75.64;99154.75;5498642;32;35030;-65
2021/12/03 03:45:08;;;;;;;22.50;12.65;;;;;;;6.19;77.33;99163.72;5475327;32;34549;-63
2021/12/03 03:48:12;;;;;;;22.47;12.83;;;;;;;5.67;79.26;99167.50;5470372;32;34561;-63
2021/12/03 03:51:14;;;;;;;22.83;13.07;;;;;;;6.68;76.27;99173.88;5493251;32;34055;-63
2021/12/03 03:54:17;;;;;;;25.27;14.30;;;;;;;6.20;77.47;99173.25;5485898;32;34053;-63
2021/12/03 03:57:19;;;;;;;23.63;14.00;;;;;;;6.31;76.34;99185.84;5493929;32;35782;-65
2021/12/03 04:00:25;;;;;;;22.73;13.27;;;;;;;6.41;76.52;99183.72;5480082;32;34816;-65
2021/12/03 04:03:30;;;;;;;22.37;13.13;;;;;;;5.97;78.03;99179.38;5502312;32;35154;-64
2021/12/03 04:06:32;;;;;;;23.73;12.67;;;;;;;5.36;80.49;99181.69;5468585;32;33917;-66
2021/12/03 04:09:35;;;;;;;26.43;13.50;;;;;;;6.19;77.88;99181.12;5483218;32;35617;-64
2021/12/03 04:12:37;;;;;;;23.63;13.53;;;;;;;6.13;78.15;99191.81;5468123;32;34036;-63
2021/12/03 04:15:42;;;;;;;22.40;12.20;;;;;;;6.08;77.24;99198.97;5457909;32;34924;-63
2021/12/03 04:18:44;;;;;;;23.00;12.27;;;;;;;6.01;77.75;99213.16;5479413;32;35009;-64
2021/12/03 04:21:47;;;;;;;19.63;12.07;;;;;;;5.82;77.65;99219.06;5478017;32;34841;-64
2021/12/03 04:24:57;;;;;;;21.87;12.00;;;;;;;5.63;77.96;99231.94;5482927;32;35355;-65
2021/12/03 04:28:03;;;;;;;20.98;11.93;;;;;;;5.92;78.25;99232.59;5481153;32;33960;-64
2021/12/03 04:31:05;;;;;;;23.70;12.10;;;;;;;6.40;75.18;99237.66;5484181;32;34998;-63
2021/12/03 04:34:08;;;;;;;21.53;12.23;;;;;;;6.27;75.03;99249.50;5497866;32;34954;-63
2021/12/03 04:37:15;;;;;;;19.50;10.97;;;;;;;6.55;74.67;99257.06;5474113;32;34369;-63
2021/12/03 04:40:18;;;;;;;19.03;11.33;;;;;;;6.24;74.25;99262.66;5493367;32;33989;-63
2021/12/03 04:43:21;;;;;;;20.83;11.27;;;;;;;5.58;76.53;99269.50;5495814;32;34696;-63
2021/12/03 04:46:24;;;;;;;20.17;11.15;;;;;;;6.04;76.00;99267.81;5482033;32;33885;-64
2021/12/03 04:49:26;;;;;;;21.07;10.97;;;;;;;5.87;75.85;99287.53;5480327;32;33971;-64
2021/12/03 04:52:29;;;;;;;20.63;12.13;;;;;;;6.37;73.48;99287.38;5481646;32;35735;-63
2021/12/03 04:55:31;;;;;;;20.90;11.93;;;;;;;5.51;77.90;99301.91;5466465;32;33895;-65
2021/12/03 04:58:34;;;;;;;19.70;11.97;;;;;;;5.49;77.28;99316.75;5480209;32;35367;-64
2021/12/03 05:01:38;;;;;;;21.47;12.70;;;;;;;5.13;78.38;99319.72;5486456;32;34643;-65
2021/12/03 05:04:41;;;;;;;21.67;12.03;;;;;;;5.49;77.16;99317.59;5491320;32;34009;-65
2021/12/03 05:07:57;;;;;;;19.77;11.30;;;;;;;5.47;77.26;99315.94;5486102;32;34678;-65
2021/12/03 05:11:00;;;;;;;20.73;12.07;;;;;;;5.84;75.38;99318.91;5477440;32;33962;-64
2021/12/03 05:14:03;;;;;;;;;;;;;;;6.41;72.61;99320.28;5486299;32;33873;-63
2021/12/03 05:17:05;;;;;;;18.17;10.67;;;;;;;6.55;71.60;99329.31;5465719;32;34289;-63
2021/12/03 05:20:08;;;;;;;20.50;11.13;;;;;;;6.46;71.71;99335.75;5476661;32;34882;-63
2021/12/03 05:23:10;;;;;;;22.87;13.50;;;;;;;5.89;73.38;99335.25;5498906;32;34957;-66
2021/12/03 05:26:12;;;;;;;22.30;11.93;;;;;;;5.56;74.12;99360.78;5490923;32;34897;-66
2021/12/03 05:29:17;;;;;;;22.57;12.83;;;;;;;5.91;73.39;99358.69;5469885;32;34852;-65
2021/12/03 05:32:20;;;;;;;22.67;12.77;;;;;;;6.46;72.15;99375.75;5480882;32;34764;-62
2021/12/03 05:35:23;;;;;;;22.70;12.40;;;;;;;6.56;69.84;99370.19;5482952;32;34175;-62
2021/12/03 05:38:27;;;;;;;22.43;12.07;;;;;;;7.18;67.97;99378.13;5478187;32;35422;-63
2021/12/03 05:41:29;;;;;;;22.03;11.83;;;;;;;6.11;69.45;99389.28;5475863;32;34237;-65
2021/12/03 05:44:31;;;;;;;19.13;11.27;;;;;;;6.56;68.27;99397.13;5481935;32;34834;-62
2021/12/03 05:47:34;;;;;;;24.50;12.37;;;;;;;5.81;68.64;99415.53;5473933;32;34674;-64
2021/12/03 05:50:36;;;;;;;24.03;12.50;;;;;;;5.96;69.97;99425.44;5480533;32;34534;-64
2021/12/03 05:53:38;;;;;;;23.40;12.60;;;;;;;5.66;70.16;99431.69;5478871;32;34057;-66
2021/12/03 05:56:41;;;;;;;21.50;11.43;;;;;;;6.11;68.56;99441.44;5483348;32;35111;-65
2021/12/03 05:59:43;;;;;;;21.90;11.27;;;;;;;6.55;64.40;99450.25;5477202;32;33537;-68
2021/12/03 06:02:46;;;;;;;20.80;10.60;;;;;;;6.64;64.03;99463.00;5484076;32;34837;-66
2021/12/03 06:05:50;;;;;;;17.23;8.70;;;;;;;6.87;61.62;99467.31;5481112;32;33457;-66
2021/12/03 06:08:52;;;;;;;20.85;10.55;;;;;;;5.78;63.18;99479.97;5476028;32;34206;-63
2021/12/03 06:11:55;;;;;;;20.33;10.23;;;;;;;5.27;65.84;99486.81;5500964;32;34959;-65
2021/12/03 06:14:57;;;;;;;24.53;10.43;;;;;;;5.60;63.57;99494.44;5494689;32;34826;-66
2021/12/03 06:17:59;;;;;;;18.27;9.07;;;;;;;5.78;63.95;99493.00;5481192;32;34289;-65
2021/12/03 06:21:04;;;;;;;19.30;9.40;;;;;;;6.14;61.86;99504.81;5480783;32;33996;-64
2021/12/03 06:24:06;;;;;;;18.67;8.80;;;;;;;5.38;61.95;99510.78;5496904;32;33604;-65
2021/12/03 06:27:09;;;;;;;17.97;7.40;;;;;;;5.52;61.94;99507.75;5479624;32;32798;-65
2021/12/03 06:30:14;;;;;;;19.13;7.80;;;;;;;5.50;60.21;99533.00;5503890;32;35208;-64
2021/12/03 06:33:16;;;;;;;18.07;7.93;;;;;;;5.82;60.04;99531.97;5485223;32;35062;-66
2021/12/03 06:36:19;;;;;;;17.87;7.70;;;;;;;6.32;58.74;99532.03;5489571;32;33928;-69
2021/12/03 06:39:21;;;;;;;17.37;7.13;;;;;;;5.96;57.80;99553.25;5472249;32;37057;-65
2021/12/03 06:42:23;;;;;;;17.43;6.80;;;;;;;5.23;58.13;99558.19;5493516;32;35397;-68
2021/12/03 06:45:25;;;;;;;18.07;6.57;;;;;;;5.21;59.49;99573.00;5481371;32;33816;-67
2021/12/03 06:48:28;;;;;;;13.30;5.20;;;;;;;5.78;56.28;99579.91;5482682;32;32398;-68
2021/12/03 06:51:32;;;;;;;13.83;5.87;;;;;;;5.05;57.10;99585.62;5495143;32;35031;-65
2021/12/03 06:54:37;;;;;;;16.03;6.30;;;;;;;5.52;56.30;99593.75;5494982;32;34424;-70
2021/12/03 06:57:41;;;;;;;11.27;5.20;;;;;;;5.46;55.35;99595.69;5498237;32;34202;-69
2021/12/03 07:00:45;;;;;;;15.33;5.03;;;;;;;6.21;53.21;99583.72;5493010;32;35065;-69
2021/12/03 07:03:49;;;;;;;10.30;4.13;;;;;;;5.22;54.97;99612.94;5485948;32;34946;-66
2021/12/03 07:06:52;;;;;;;13.65;4.95;;;;;;;4.83;56.00;99611.44;5491221;32;33877;-67
2021/12/03 07:09:55;;;;;;;11.93;4.27;;;;;;;4.54;55.74;99622.63;5498176;32;34125;-66
2021/12/03 07:12:58;;;;;;;11.15;4.05;;;;;;;5.02;54.23;99622.16;5491808;32;34312;-63
2021/12/03 07:16:04;;;;;;;9.47;4.23;;;;;;;5.06;54.30;99635.97;5490621;32;35042;-66
2021/12/03 07:19:08;;;;;;;8.67;3.23;;;;;;;5.18;53.32;99637.38;5493725;32;34205;-66
2021/12/03 07:22:13;;;;;;;12.07;4.17;;;;;;;5.29;53.66;99640.53;5491185;32;33872;-65
2021/12/03 07:25:16;;;;;;;16.43;3.83;;;;;;;5.05;52.46;99637.72;5480643;32;33795;-66
2021/12/03 07:28:19;;;;;;;8.97;3.13;;;;;;;4.88;52.90;99660.75;5485539;32;35239;-67
2021/12/03 07:31:22;;;;;;;9.45;3.60;;;;;;;4.59;53.08;99669.38;5480762;32;33934;-66
2021/12/03 07:34:25;;;;;;;11.73;3.93;;;;;;;4.63;54.02;99684.00;5473466;32;34986;-64
2021/12/03 07:37:27;;;;;;;11.02;4.30;;;;;;;4.75;52.92;99695.84;5468735;32;33426;-68
2021/12/03 07:40:30;;;;;;;11.37;3.47;;;;;;;5.54;51.39;99709.28;5501123;32;34035;-66
2021/12/03 07:43:32;;;;;;;10.97;3.93;;;;;;;5.11;52.09;99733.06;5481828;32;33796;-67
2021/12/03 07:46:36;;;;;;;9.93;3.20;;;;;;;5.20;52.25;99740.63;5466656;32;34193;-66
2021/12/03 07:49:40;;;;;;;13.07;3.43;;;;;;;5.69;50.14;99754.88;5469033;32;32776;-69
2021/12/03 07:52:42;;;;;;;;;;;;;;;4.88;52.55;99767.53;5487997;32;32954;-68
2021/12/03 07:55:49;;;;;;;10.87;2.97;;;;;;;5.43;51.71;99769.53;5495186;32;34219;-68
2021/12/03 07:58:51;;;;;;;10.97;2.90;;;;;;;4.50;52.59;99768.47;5481299;32;35285;-68
2021/12/03 08:01:54;;;;;;;13.57;4.57;;;;;;;4.36;53.18;99779.22;5496188;32;36643;-67
2021/12/03 08:05:04;;;;;;;10.67;3.63;;;;;;;4.89;52.98;99784.84;5456199;32;33416;-66
2021/12/03 08:08:06;;;;;;;11.18;3.17;;;;;;;5.30;51.06;99794.22;5447927;32;34092;-63
2021/12/03 08:11:09;;;;;;;9.07;3.43;;;;;;;4.86;51.27;99809.22;5459316;32;35328;-63
2021/12/03 08:14:11;;;;;;;12.30;2.90;;;;;;;5.58;50.46;99816.91;5476325;32;34602;-62
2021/12/03 08:17:14;;;;;;;12.90;3.40;;;;;;;5.02;51.97;99821.84;5463544;32;35359;-64
2021/12/03 08:20:17;;;;;;;11.43;4.03;;;;;;;4.88;53.02;99830.03;5466539;32;34957;-66
2021/12/03 08:23:25;;;;;;;9.30;3.47;;;;;;;4.60;53.92;99842.84;5454145;32;34582;-65
2021/12/03 08:26:29;;;;;;;12.07;4.67;;;;;;;4.91;52.83;99848.19;5457382;32;34126;-68
2021/12/03 08:29:32;;;;;;;10.07;3.85;;;;;;;5.71;51.60;99846.94;5459353;32;34829;-67
2021/12/03 08:32:34;;;;;;;9.20;3.23;;;;;;;4.25;54.13;99860.12;5458689;32;35880;-65
2021/12/03 08:35:36;;;;;;;7.87;3.00;;;;;;;4.65;53.89;99867.03;5453083;32;35552;-64
2021/12/03 08:38:39;;;;;;;11.07;3.27;;;;;;;4.25;53.67;99877.44;5441152;32;34127;-64
2021/12/03 08:41:42;;;;;;;14.80;3.20;;;;;;;4.73;52.99;99872.91;5454820;32;34082;-63
2021/12/03 08:44:45;;;;;;;7.33;2.63;;;;;;;4.96;51.48;99874.09;5450568;32;34013;-64
2021/12/03 08:47:51;;;;;;;9.60;2.70;;;;;;;5.04;50.67;99885.22;5448232;32;34984;-66
2021/12/03 08:57:38;;;;;;;10.70;2.53;;;;;;;4.94;50.49;99914.97;5473326;32;34156;-66
2021/12/03 09:00:43;;;;;;;8.17;2.10;;;;;;;5.06;49.41;99915.53;5477550;32;35238;-65
2021/12/03 09:03:48;;;;;;;7.63;2.73;;;;;;;5.35;48.24;99920.03;5469040;32;34782;-68
2021/12/03 09:06:50;;;;;;;10.52;3.12;;;;;;;4.98;49.76;99921.81;5475707;32;35647;-64
2021/12/03 09:09:52;;;;;;;9.83;2.47;;;;;;;5.85;46.79;99927.41;5464199;32;33894;-65
2021/12/03 09:12:57;;;;;;;7.77;2.20;;;;;;;5.50;47.32;99930.97;5465909;32;33620;-66
2021/12/03 09:19:06;;;;;;;6.20;1.90;;;;;;;5.49;46.48;99937.06;5467823;32;34065;-62
2021/12/03 09:22:11;;;;;;;10.47;2.47;;;;;;;5.80;45.74;99951.03;5476493;32;33953;-65
2021/12/03 09:25:19;;;;;;;6.77;2.10;;;;;;;5.93;45.78;99962.87;5474300;32;33719;-67
2021/12/03 09:28:27;;;;;;;11.50;2.20;;;;;;;5.84;44.89;99960.47;5452885;32;34379;-67
2021/12/03 09:31:37;;;;;;;9.80;3.63;;;;;;;5.99;44.97;99961.84;5446222;32;35736;-63
2021/12/03 09:34:40;;;;;;;5.33;2.00;;;;;;;5.38;46.24;99964.25;5442984;32;33949;-63
2021/12/03 09:37:48;;;;;;;7.57;2.50;;;;;;;5.36;45.82;99962.59;5438847;32;34130;-64
2021/12/03 09:40:53;;;;;;;9.03;2.17;;;;;;;5.53;44.22;99964.75;5444683;32;35769;-64
2021/12/03 09:43:56;;;;;;;5.80;1.97;;;;;;;4.97;45.84;99972.19;5445018;32;34176;-64
2021/12/03 09:47:06;;;;;;;6.10;2.23;;;;;;;5.14;45.17;99970.87;5421199;32;33725;-64
2021/12/03 09:50:15;;;;;;;10.20;2.20;;;;;;;5.16;45.18;99969.13;5406491;32;34106;-62
2021/12/03 09:53:39;;;;;;;10.50;2.67;;;;;;;6.08;44.62;99971.19;5424225;32;35035;-62
2021/12/03 09:56:42;;;;;;;5.70;2.15;;;;;;;5.15;45.65;99971.75;5405052;32;35556;-61
2021/12/03 10:17:00;;;;;;;4.47;2.20;;;;;;;6.15;42.17;99984.00;5444219;32;35642;-62
2021/12/03 10:19:49;;;;;;;6.03;2.60;;;;;;;6.01;41.71;99991.34;5434580;32;35252;-63
2021/12/03 10:30:21;;;;;;;8.10;2.00;;;;;;;5.21;44.17;100000.25;5442443;32;33939;-62
2021/12/03 10:40:35;;;;;;;9.03;4.10;;;;;;;5.36;46.31;100001.66;5469357;32;34755;-64
2021/12/03 10:53:55;;;;;;;7.30;2.43;;;;;;;4.74;47.38;99998.72;5472804;32;35072;-61
2021/12/03 11:00:38;;;;;;;7.30;2.23;;;;;;;5.04;44.58;100012.84;5482867;32;35584;-62
2021/12/03 11:14:16;;;;;;;7.30;2.10;;;;;;;6.54;41.41;100017.72;5491534;32;34133;-67
2021/12/03 11:40:39;;;;;;;5.90;2.03;;;;;;;6.95;39.15;100047.84;5497242;32;33547;-63
2021/12/03 11:58:53;;;;;;;6.93;2.80;;;;;;;8.79;35.24;100055.72;5465226;32;34371;-69
2021/12/03 12:06:05;;;;;;;6.70;2.40;;;;;;;7.08;39.23;100077.09;5484496;32;33908;-66
2021/12/03 13:29:27;;;;;;;12.47;3.93;;;;;;;5.31;46.89;100139.88;5477956;32;34714;-61
2021/12/03 13:33:11;;;;;;;8.87;3.27;;;;;;;5.91;46.09;100125.50;5487683;32;34523;-61
2021/12/03 14:12:43;;;;;;;11.03;3.37;;;;;;;4.61;48.41;100198.56;5497766;32;34084;-63
2021/12/03 14:19:56;;;;;;;10.97;3.73;;;;;;;5.52;46.51;100187.22;5502017;32;34625;-63
2021/12/03 14:32:15;;;;;;;10.63;3.30;;;;;;;5.09;48.16;100222.00;5490341;32;35646;-62
2021/12/03 14:39:47;;;;;;;10.05;2.85;;;;;;;5.64;46.93;100220.84;5496040;32;34228;-64
2021/12/03 14:52:31;;;;;;;5.43;2.50;;;;;;;4.50;49.68;100239.53;5480350;32;34099;-61
2021/12/03 14:55:34;;;;;;;5.73;2.70;;;;;;;4.71;48.52;100235.72;5500643;32;34636;-64
2021/12/03 15:05:02;;;;;;;7.30;2.80;;;;;;;5.41;47.37;100257.84;5488723;32;34084;-62
2021/12/03 15:08:06;;;;;;;15.20;5.90;;;;;;;5.09;47.45;100259.31;5482686;32;33814;-62
2021/12/03 15:31:05;;;;;;;8.23;2.80;;;;;;;5.07;46.54;100283.66;5494926;32;34659;-61
2021/12/03 15:37:32;;;;;;;7.70;2.73;;;;;;;4.92;44.98;100279.59;5495708;32;34039;-62
2021/12/03 15:57:14;;;;;;;6.00;2.43;;;;;;;3.76;46.50;100304.78;5494745;32;33895;-64
2021/12/03 16:03:49;;;;;;;8.10;3.10;;;;;;;3.48;47.73;100312.91;5480168;32;33886;-63
2021/12/03 16:13:51;;;;;;;7.40;3.30;;;;;;;3.81;46.77;100331.59;5477646;32;34504;-61
2021/12/03 16:43:43;;;;;;;8.43;3.53;;;;;;;3.76;46.89;100365.44;5477645;32;34073;-63
2021/12/03 16:46:57;;;;;;;8.20;3.43;;;;;;;4.44;45.71;100367.16;5498942;32;35015;-62
2021/12/03 16:53:27;;;;;;;10.73;4.00;;;;;;;3.88;47.54;100376.56;5503503;32;34440;-62
2021/12/03 16:56:50;;;;;;;9.03;3.80;;;;;;;3.84;47.28;100382.69;5479068;32;34915;-65
2021/12/03 16:59:52;;;;;;;12.30;3.70;;;;;;;4.56;45.83;100385.19;5491404;32;34522;-62
2021/12/03 17:03:07;;;;;;;10.97;3.73;;;;;;;3.90;46.76;100396.47;5491254;32;34527;-62
2021/12/03 17:19:52;;;;;;;23.90;8.83;;;;;;;3.48;48.00;100397.81;5440404;32;34482;-62
2021/12/03 17:49:03;;;;;;;9.97;3.93;;;;;;;3.76;46.00;100404.44;5484688;32;33497;-64
2021/12/03 17:59:07;;;;;;;11.30;3.97;;;;;;;3.20;46.58;100424.03;5493680;32;34164;-64
2021/12/03 18:01:49;;;;;;;10.27;3.90;;;;;;;2.89;47.12;100425.12;5487289;32;34255;-68
2021/12/03 18:05:06;;;;;;;11.82;3.83;;;;;;;2.98;46.99;100432.88;5457989;32;34178;-68
2021/12/03 18:08:21;;;;;;;11.40;4.40;;;;;;;2.87;47.17;100421.69;5495945;32;34054;-68
2021/12/03 18:18:07;;;;;;;11.93;4.37;;;;;;;3.47;46.03;100411.66;5502483;32;34214;-68
2021/12/03 18:57:26;;;;;;;11.13;4.23;;;;;;;4.16;42.79;100413.50;5478736;32;33047;-71
2021/12/03 19:00:30;;;;;;;12.50;4.67;;;;;;;3.76;43.65;100414.81;5485710;32;33888;-68
2021/12/03 19:10:31;;;;;;;10.03;3.53;;;;;;;3.50;43.43;100422.03;5483443;32;35224;-69
2021/12/03 19:13:40;;;;;;;11.87;4.80;;;;;;;3.25;43.96;100424.00;5479922;32;34891;-69
2021/12/03 19:16:43;;;;;;;13.07;3.43;;;;;;;3.29;43.26;100417.91;5495321;32;34789;-68
2021/12/03 19:19:46;;;;;;;7.10;3.53;;;;;;;2.92;43.80;100428.59;5488176;32;34133;-68
2021/12/03 19:22:50;;;;;;;9.23;3.67;;;;;;;3.25;43.39;100419.66;5477441;32;33395;-70
2021/12/03 19:25:53;;;;;;;9.80;3.57;;;;;;;3.34;43.46;100413.50;5498550;32;34040;-68
2021/12/03 19:28:56;;;;;;;9.57;3.63;;;;;;;3.58;43.00;100409.81;5462970;32;33843;-69
2021/12/03 19:31:58;;;;;;;7.83;3.17;;;;;;;2.86;44.15;100425.16;5486213;32;33978;-71
2021/12/03 19:35:00;;;;;;;9.03;3.57;;;;;;;3.10;43.75;100421.53;5475593;32;34957;-69
2021/12/03 19:38:04;;;;;;;8.87;3.23;;;;;;;3.06;44.49;100412.91;5483415;32;35496;-70
2021/12/03 19:41:21;;;;;;;13.32;4.12;;;;;;;2.57;45.34;100433.97;5495110;32;34911;-69
2021/12/03 19:44:35;;;;;;;8.93;3.50;;;;;;;2.89;44.71;100438.13;5464724;32;36271;-68
2021/12/03 19:47:59;;;;;;;8.23;3.30;;;;;;;3.11;44.43;100431.91;5499219;32;34873;-68
2021/12/03 19:51:02;;;;;;;9.73;4.23;;;;;;;3.57;44.08;100428.03;5498880;32;34180;-68
2021/12/03 19:54:05;;;;;;;10.65;3.72;;;;;;;3.34;44.49;100436.87;5497897;32;34916;-69
2021/12/03 19:57:08;;;;;;;9.90;4.40;;;;;;;4.15;43.05;100432.59;5479415;32;33758;-68
2021/12/03 20:00:11;;;;;;;12.27;4.30;;;;;;;3.56;44.45;100441.91;5494922;32;35188;-69
2021/12/03 20:03:14;;;;;;;13.02;4.28;;;;;;;3.71;44.77;100444.34;5501659;32;34985;-68
2021/12/03 20:06:16;;;;;;;9.57;4.23;;;;;;;3.86;44.61;100448.50;5493415;32;34183;-68
2021/12/03 20:09:24;;;;;;;12.53;4.90;;;;;;;3.70;45.52;100446.09;5498812;32;34123;-69
2021/12/03 20:12:31;;;;;;;10.43;4.83;;;;;;;4.02;45.45;100450.94;5479347;32;33926;-69
2021/12/03 20:15:40;;;;;;;11.20;4.93;;;;;;;3.30;46.44;100457.72;5498177;32;33751;-68
2021/12/03 20:18:50;;;;;;;16.33;6.20;;;;;;;4.15;44.92;100458.59;5458635;32;35646;-68
2021/12/03 20:22:04;;;;;;;15.60;6.40;;;;;;;4.15;45.19;100459.47;5467557;32;34126;-69
2021/12/03 20:28:25;;;;;;;10.93;5.00;;;;;;;3.85;46.04;100444.19;5491826;32;35453;-68
2021/12/03 20:31:33;;;;;;;12.73;5.07;;;;;;;3.02;48.00;100455.31;5482788;32;34506;-69
2021/12/03 20:37:50;;;;;;;15.37;6.07;;;;;;;3.20;47.96;100450.00;5495980;32;35119;-69
2021/12/03 20:40:55;;;;;;;14.43;6.13;;;;;;;4.45;45.09;100437.41;5509360;32;34286;-70
2021/12/03 20:44:18;;;;;;;14.07;5.77;;;;;;;3.72;46.68;100448.66;5477310;32;33892;-69
2021/12/03 20:51:04;;;;;;;16.27;6.20;;;;;;;4.27;45.88;100455.88;5473387;32;35235;-68
2021/12/03 20:57:28;;;;;;;13.90;6.40;;;;;;;3.40;47.94;100467.16;5503933;32;33941;-69
2021/12/03 21:10:45;;;;;;;14.73;5.90;;;;;;;3.58;48.21;100454.00;5491103;32;35381;-69
2021/12/03 21:13:49;;;;;;;13.57;5.37;;;;;;;3.65;48.29;100445.25;5479830;32;34085;-69
2021/12/03 21:17:26;;;;;;;16.10;5.83;;;;;;;4.64;45.35;100445.84;5500167;32;35732;-69
2021/12/03 21:23:26;;;;;;;13.63;5.63;;;;;;;4.32;45.69;100446.25;5498982;32;34476;-67
2021/12/03 21:26:31;;;;;;;14.30;6.17;;;;;;;4.08;46.18;100437.00;5478203;32;34705;-68
2021/12/03 21:42:40;;;;;;;14.93;6.70;;;;;;;3.00;50.46;100459.69;5485168;32;34653;-68
2021/12/03 21:45:44;;;;;;;20.42;6.80;;;;;;;2.60;52.19;100464.25;5464468;32;34233;-68
2021/12/03 21:48:47;;;;;;;16.30;6.17;;;;;;;3.07;51.20;100460.50;5470303;32;35388;-68
2021/12/03 21:51:50;;;;;;;13.87;6.23;;;;;;;3.13;50.85;100453.53;5498941;32;34528;-68
2021/12/03 21:54:52;;;;;;;16.63;6.37;;;;;;;3.04;51.07;100457.94;5490904;32;34997;-68
2021/12/03 21:57:55;;;;;;;18.53;6.93;;;;;;;3.38;50.13;100449.00;5490988;32;34244;-68
2021/12/03 22:00:58;;;;;;;23.17;6.70;;;;;;;3.53;50.14;100448.84;5485507;32;34378;-68
2021/12/03 22:04:02;;;;;;;15.60;6.23;;;;;;;3.82;49.43;100445.09;5473412;32;34900;-68
2021/12/03 22:07:10;;;;;;;14.23;5.97;;;;;;;4.47;47.57;100446.06;5481907;32;34684;-70
2021/12/03 22:10:13;;;;;;;14.47;6.10;;;;;;;4.60;46.79;100445.00;5501407;32;34221;-68
2021/12/03 22:13:16;;;;;;;18.53;6.60;;;;;;;4.13;47.61;100448.22;5474818;32;34272;-68
2021/12/03 22:16:19;;;;;;;15.70;7.72;;;;;;;3.10;51.67;100458.75;5499180;32;33921;-68
2021/12/03 22:19:22;;;;;;;21.73;7.75;;;;;;;3.27;51.14;100445.59;5477550;32;35067;-67
2021/12/03 22:22:25;;;;;;;23.23;7.80;;;;;;;3.01;52.20;100444.97;5498203;32;34661;-68
2021/12/03 22:25:27;;;;;;;15.00;6.63;;;;;;;2.82;53.02;100444.22;5466204;32;33588;-68